Agra, KS (67621)

6:21 PM CST on January 25, 2015 (GMT -0600)
Near 14th and K | Change Station
CLOSE
Current Station
Personal Weather Station
Location: Franklin, NE
Elevation: 1850 ft
Nearby Weather Stations

Elev 1850 ft 40.09 °N, 98.95 °W | Updated 8 seconds ago

Partly Cloudy
Partly Cloudy
42.6 °F
Feels Like 43 °F
N
0.0
Wind Variable Wind from East
Gusts 0.0 mph

Today
High -- | Low -- °F
--% Chance of Precip.
Yesterday
High -- | Low -- °F
Precip. -- in
7:50 AM 5:47 PM
Waxing Crescent, 37% visible
Pressure 30.07 in
Visibility 10.0 miles
Clouds Clear
Windchill 43 °F
Dew Point 26 °F
Humidity 52%
Rainfall 0.00 in
Snow Depth Not available.
UV 0 out of 12
Pollen 1.90 out of 12
Air Quality Not available.
Flu Activity Not available.
METAR KHDE 252355Z AUTO 04004KT 10SM CLR 02/M05 A3007 RMK AO2 T00191047 10081 20019

More Conditions Fewer Conditions

Pressure 30.07 in
Visibility 10.0 miles
Clouds Clear
Windchill 43 °F
Dew Point 26 °F
Humidity 52%
Rainfall 0.00 in
Snow Depth Not available.
UV 0 out of 12
Pollen 1.90 out of 12
Air Quality Not available.
Flu Activity Not available.
METAR KHDE 252355Z AUTO 04004KT 10SM CLR 02/M05 A3007 RMK AO2 T00191047 10081 20019

More Conditions Fewer Conditions

10-Day Weather Forecast

Almanac

Astronomy

Jan. 25, 2015 Rise Set
Actual Time
Civil Twilight
Nautical Twilight
Astronomical Twilight
Moon
Length of Visible Light
Length of Day
Tomorrow will be .
, % of the Moon is Illuminated

Today's Extremes

State Highs State Lows

Community

WunderPhotos

Upload Photos

1,790,013 photos uploaded!

WunderBlogs® & News

Nearby

Air Quality

  Air Quality AQ Index Pollutant
Not available.

Snow Depth

Station Depth Elevation

Earthquake Activity

City Distance Mag. Time & Date
Minimum magnitude displayed is 2.5.

Coastal Water Temperatures

Place Temperature

Nearby Weather Stations